createdAt,value
2019-04-29T00:02:09.773Z,3.53
2019-04-29T00:04:38.346Z,3.51
2019-04-29T00:07:07.291Z,3.50
2019-04-29T00:09:35.861Z,3.49
2019-04-29T00:12:04.427Z,3.50
2019-04-29T00:14:34.199Z,3.51
2019-04-29T00:17:10.337Z,3.53
2019-04-29T00:19:46.338Z,3.54
2019-04-29T00:22:14.932Z,3.55
2019-04-29T00:24:43.527Z,3.57
2019-04-29T00:27:12.166Z,3.58
2019-04-29T00:29:40.775Z,3.59
2019-04-29T00:32:10.113Z,3.64
2019-04-29T00:34:38.702Z,3.67
2019-04-29T00:37:08.920Z,3.69
2019-04-29T00:39:54.447Z,3.72
2019-04-29T00:42:27.387Z,3.73
2019-04-29T00:44:56.029Z,3.74
2019-04-29T00:47:24.668Z,3.75
2019-04-29T00:49:53.378Z,3.75
2019-04-29T00:52:21.876Z,3.75
2019-04-29T00:54:52.137Z,3.72
2019-04-29T00:57:20.710Z,3.72
2019-04-29T00:59:49.279Z,3.70
2019-04-29T01:02:18.050Z,3.67
2019-04-29T01:04:46.687Z,3.65
2019-04-29T01:07:15.256Z,3.63
2019-04-29T01:09:43.830Z,3.61
2019-04-29T01:12:12.402Z,3.58
2019-04-29T01:14:40.998Z,3.55
2019-04-29T01:17:09.609Z,3.52
2019-04-29T01:19:38.345Z,3.48
2019-04-29T01:22:06.952Z,3.46
2019-04-29T01:24:35.624Z,3.41
2019-04-29T01:27:06.037Z,3.37
2019-04-29T01:29:35.206Z,3.34
2019-04-29T01:32:05.439Z,3.28
2019-04-29T01:34:35.684Z,3.24
2019-04-29T01:37:04.352Z,3.20
2019-04-29T01:39:37.486Z,3.16
2019-04-29T01:42:07.751Z,3.12
2019-04-29T01:44:36.558Z,3.08
2019-04-29T01:47:05.131Z,3.04
2019-04-29T01:49:33.704Z,3.02
2019-04-29T01:52:02.279Z,2.98
2019-04-29T01:54:30.970Z,2.94
2019-04-29T01:56:59.480Z,2.91
2019-04-29T01:59:28.047Z,2.88
2019-04-29T02:01:56.621Z,2.83
2019-04-29T02:04:25.224Z,2.81
2019-04-29T02:06:53.925Z,2.77
2019-04-29T02:09:30.217Z,2.74
2019-04-29T02:11:58.770Z,2.72
2019-04-29T02:14:27.373Z,2.69
2019-04-29T02:16:55.948Z,2.65
2019-04-29T02:19:24.545Z,2.62
2019-04-29T02:22:12.987Z,2.60
2019-04-29T02:24:49.180Z,2.57
2019-04-29T02:27:17.921Z,2.55
2019-04-29T02:29:46.640Z,2.53
2019-04-29T02:32:15.243Z,2.51
2019-04-29T02:34:43.814Z,2.50
2019-04-29T02:37:14.063Z,2.49
2019-04-29T02:39:47.311Z,2.47
2019-04-29T02:42:33.904Z,2.46
2019-04-29T02:45:04.351Z,2.45
2019-04-29T02:47:32.847Z,2.42
2019-04-29T02:50:01.458Z,2.38
2019-04-29T02:52:30.147Z,2.36
2019-04-29T02:55:00.424Z,2.35
2019-04-29T02:57:39.857Z,2.35
2019-04-29T03:00:11.168Z,2.33
2019-04-29T03:02:41.379Z,2.32
2019-04-29T03:05:14.661Z,2.32
2019-04-29T03:07:43.372Z,2.30
2019-04-29T03:10:12.908Z,2.29
2019-04-29T03:12:41.462Z,2.29
2019-04-29T03:15:10.369Z,2.30
2019-04-29T03:17:39.113Z,2.30
2019-04-29T03:20:15.603Z,2.30
2019-04-29T03:22:45.999Z,2.32
2019-04-29T03:25:14.598Z,2.33
2019-04-29T03:27:43.214Z,2.36
2019-04-29T03:30:12.028Z,2.37
2019-04-29T03:32:40.630Z,2.39
2019-04-29T03:35:09.287Z,2.41
2019-04-29T03:37:37.860Z,2.43
2019-04-29T03:40:07.060Z,2.46
2019-04-29T03:42:35.739Z,2.46
2019-04-29T03:45:06.296Z,2.48
2019-04-29T03:47:34.898Z,2.49
2019-04-29T03:50:03.677Z,2.50
2019-04-29T03:52:32.210Z,2.50
2019-04-29T03:55:00.783Z,2.50
2019-04-29T03:57:30.988Z,2.49
2019-04-29T03:59:59.494Z,2.50
2019-04-29T04:02:29.750Z,2.48
2019-04-29T04:05:05.968Z,2.47
2019-04-29T04:07:45.274Z,2.46
2019-04-29T04:10:14.124Z,2.44
2019-04-29T04:12:42.628Z,2.43
2019-04-29T04:15:11.425Z,2.44
2019-04-29T04:17:47.416Z,2.44
2019-04-29T04:20:16.182Z,2.43
2019-04-29T04:22:49.204Z,2.43
2019-04-29T04:25:18.650Z,2.42
2019-04-29T04:27:48.709Z,2.42
2019-04-29T04:30:19.217Z,2.44
2019-04-29T04:32:47.856Z,2.45
2019-04-29T04:35:16.751Z,2.48
2019-04-29T04:37:45.470Z,2.49
2019-04-29T04:40:16.257Z,2.53
2019-04-29T04:42:44.851Z,2.57
2019-04-29T04:45:13.524Z,2.61
2019-04-29T04:47:42.099Z,2.66
2019-04-29T04:50:10.964Z,2.72
2019-04-29T04:52:39.538Z,2.77
2019-04-29T04:55:08.982Z,2.81
2019-04-29T04:57:37.556Z,2.87
2019-04-29T05:00:09.498Z,2.93
2019-04-29T05:02:38.063Z,3.02
2019-04-29T05:05:06.770Z,3.09
2019-04-29T05:07:35.413Z,3.17
2019-04-29T05:10:04.628Z,3.23
2019-04-29T05:12:33.180Z,3.29
2019-04-29T05:15:01.762Z,3.37
2019-04-29T05:17:30.253Z,3.44
2019-04-29T05:19:58.834Z,3.53
2019-04-29T05:22:27.411Z,3.62
2019-04-29T05:24:55.981Z,3.72
2019-04-29T05:27:24.607Z,3.84
2019-04-29T05:29:53.176Z,3.98
2019-04-29T05:32:21.749Z,4.13
2019-04-29T05:34:54.918Z,4.30
2019-04-29T05:37:24.272Z,4.53
2019-04-29T05:39:52.843Z,4.87
2019-04-29T05:42:21.548Z,5.41
2019-04-29T05:44:51.713Z,5.98
2019-04-29T05:47:30.994Z,6.56
2019-04-29T05:50:18.492Z,7.17
2019-04-29T05:52:58.084Z,7.87
2019-04-29T05:55:26.661Z,8.62
2019-04-29T05:58:02.913Z,9.23
2019-04-29T06:00:27.244Z,9.68
2019-04-29T06:02:55.817Z,10.00
2019-04-29T06:05:24.453Z,10.20
2019-04-29T06:07:56.110Z,10.38
2019-04-29T06:10:24.699Z,10.52
2019-04-29T06:12:53.404Z,10.52
2019-04-29T06:15:22.021Z,10.45
2019-04-29T06:17:50.519Z,10.37
2019-04-29T06:20:22.633Z,10.32
2019-04-29T06:22:49.400Z,10.35
2019-04-29T06:25:17.937Z,10.45
2019-04-29T06:27:46.517Z,10.59
2019-04-29T06:30:15.690Z,10.91
2019-04-29T06:32:44.272Z,11.14
2019-04-29T06:35:14.167Z,11.31
2019-04-29T06:37:43.059Z,11.47
2019-04-29T06:40:11.774Z,11.61
2019-04-29T06:42:40.368Z,11.61
2019-04-29T06:45:09.048Z,11.49
2019-04-29T06:47:37.569Z,11.36
2019-04-29T06:50:08.485Z,11.37
2019-04-29T06:52:37.061Z,11.44
2019-04-29T06:55:06.842Z,11.50
2019-04-29T06:57:35.544Z,11.55
2019-04-29T07:00:07.069Z,11.63
2019-04-29T07:02:35.675Z,11.81
2019-04-29T07:05:07.376Z,12.06
2019-04-29T07:07:36.002Z,12.25
2019-04-29T07:10:05.377Z,12.45
2019-04-29T07:12:33.964Z,12.71
2019-04-29T07:15:02.683Z,13.02
2019-04-29T07:17:31.193Z,13.20
2019-04-29T07:20:01.966Z,13.50
2019-04-29T07:22:31.207Z,14.03
2019-04-29T07:24:59.878Z,14.69
2019-04-29T07:27:28.486Z,15.41
2019-04-29T07:29:57.065Z,16.12
2019-04-29T07:32:25.772Z,16.68
2019-04-29T07:34:54.337Z,17.34
2019-04-29T07:37:22.923Z,17.91
2019-04-29T07:39:51.508Z,18.41
2019-04-29T07:42:20.084Z,18.74
2019-04-29T07:45:06.576Z,19.05
2019-04-29T07:47:35.723Z,19.35
2019-04-29T07:50:06.276Z,19.50
2019-04-29T07:52:34.825Z,19.51
2019-04-29T07:55:04.410Z,19.16
2019-04-29T07:57:32.994Z,18.71
2019-04-29T08:00:01.616Z,18.42
2019-04-29T08:02:30.192Z,18.27
2019-04-29T08:04:58.770Z,18.22
2019-04-29T08:07:27.753Z,18.27
2019-04-29T08:09:56.631Z,18.63
2019-04-29T08:12:26.910Z,18.87
2019-04-29T08:14:58.548Z,19.05
2019-04-29T08:17:26.198Z,19.27
2019-04-29T08:19:54.886Z,19.48
2019-04-29T08:22:27.723Z,19.14
2019-04-29T08:24:53.786Z,18.65
2019-04-29T08:27:22.279Z,18.33
2019-04-29T08:29:50.854Z,18.35
2019-04-29T08:32:19.449Z,18.19
2019-04-29T08:34:48.045Z,18.13
2019-04-29T08:37:16.619Z,17.97
2019-04-29T08:39:45.308Z,17.52
2019-04-29T08:42:24.504Z,17.57
2019-04-29T08:44:59.770Z,17.91
2019-04-29T08:47:32.103Z,18.01
2019-04-29T08:50:00.843Z,18.40
2019-04-29T08:52:29.517Z,19.17
2019-04-29T08:54:58.090Z,19.75
2019-04-29T08:57:26.671Z,20.00
2019-04-29T08:59:55.250Z,20.19
2019-04-29T09:02:34.585Z,20.15
2019-04-29T09:04:54.373Z,20.29
2019-04-29T09:07:23.263Z,20.19
2019-04-29T09:09:56.180Z,19.86
2019-04-29T09:12:23.823Z,19.24
2019-04-29T09:14:52.626Z,18.75
2019-04-29T09:17:21.268Z,19.11
2019-04-29T09:19:49.840Z,19.66
2019-04-29T09:22:20.055Z,19.82
2019-04-29T09:25:02.477Z,19.62
2019-04-29T09:27:31.532Z,19.18
2019-04-29T09:30:00.574Z,19.29
2019-04-29T09:32:29.163Z,19.30
2019-04-29T09:34:59.473Z,18.89
2019-04-29T09:37:28.217Z,18.46
2019-04-29T09:39:57.100Z,17.94
2019-04-29T09:42:36.210Z,17.83
2019-04-29T09:45:24.503Z,17.82
2019-04-29T09:47:52.857Z,17.80
2019-04-29T09:50:21.432Z,17.46
2019-04-29T09:52:49.942Z,17.49
2019-04-29T09:55:19.895Z,17.61
2019-04-29T09:57:48.451Z,18.18
2019-04-29T10:00:22.004Z,19.05
2019-04-29T10:02:57.933Z,19.77
2019-04-29T10:05:37.300Z,20.00
2019-04-29T10:08:06.541Z,20.39
2019-04-29T10:10:37.197Z,20.64
2019-04-29T10:13:05.749Z,20.88
2019-04-29T10:15:42.064Z,20.93
2019-04-29T10:18:12.321Z,20.65
2019-04-29T10:20:48.580Z,20.77
2019-04-29T10:23:17.266Z,21.24
2019-04-29T10:25:45.879Z,21.26
2019-04-29T10:28:14.463Z,20.76
2019-04-29T10:30:43.510Z,20.27
2019-04-29T10:33:12.769Z,19.96
2019-04-29T10:35:45.217Z,20.22
2019-04-29T10:38:12.831Z,20.60
2019-04-29T10:41:03.321Z,20.87
2019-04-29T10:43:49.455Z,20.77
2019-04-29T10:46:33.747Z,20.48
2019-04-29T10:49:12.907Z,20.35
2019-04-29T10:51:41.652Z,20.33
2019-04-29T10:54:14.382Z,20.30
2019-04-29T10:56:43.098Z,20.40
2019-04-29T10:59:11.774Z,20.53
2019-04-29T11:02:01.018Z,20.65
2019-04-29T11:04:24.121Z,20.55
2019-04-29T11:06:52.731Z,20.46
2019-04-29T11:09:36.484Z,20.50
2019-04-29T11:12:08.858Z,20.60
2019-04-29T11:14:37.580Z,20.64
2019-04-29T11:17:16.028Z,20.58
2019-04-29T11:19:39.944Z,20.61
2019-04-29T11:22:11.533Z,20.92
2019-04-29T11:24:44.646Z,20.87
2019-04-29T11:27:23.796Z,20.67
2019-04-29T11:29:52.419Z,20.56
2019-04-29T11:32:29.213Z,20.45
2019-04-29T11:34:56.407Z,20.45
2019-04-29T11:37:24.986Z,19.93
2019-04-29T11:39:56.843Z,20.28
2019-04-29T11:42:24.359Z,20.47
2019-04-29T11:44:57.268Z,20.49
2019-04-29T11:47:25.175Z,20.60
2019-04-29T11:50:01.229Z,20.68
2019-04-29T11:52:29.873Z,20.60
2019-04-29T11:54:58.384Z,20.43
2019-04-29T11:57:40.721Z,20.24
2019-04-29T12:00:02.772Z,20.06
2019-04-29T12:02:45.455Z,19.53
2019-04-29T12:05:12.279Z,19.98
2019-04-29T12:07:40.847Z,20.01
2019-04-29T12:10:11.227Z,20.39
2019-04-29T12:12:43.578Z,20.60
2019-04-29T12:15:27.056Z,20.84
2019-04-29T12:18:03.315Z,20.80
2019-04-29T12:20:33.534Z,20.61
2019-04-29T12:23:02.219Z,20.44
2019-04-29T12:25:30.900Z,20.31
2019-04-29T12:28:01.955Z,20.16
2019-04-29T12:30:34.675Z,20.00
2019-04-29T12:33:06.703Z,19.83
2019-04-29T12:35:50.754Z,19.58
2019-04-29T12:38:23.856Z,19.59
2019-04-29T12:41:20.441Z,19.64
2019-04-29T12:44:00.857Z,19.66
2019-04-29T12:46:32.265Z,19.70
2019-04-29T12:49:03.646Z,19.58
2019-04-29T12:51:31.239Z,19.56
2019-04-29T12:53:59.809Z,19.63
2019-04-29T12:56:33.129Z,19.68
2019-04-29T12:59:02.076Z,19.63
2019-04-29T13:01:51.256Z,19.59
2019-04-29T13:04:22.047Z,19.62
2019-04-29T13:07:06.763Z,19.71
2019-04-29T13:09:39.074Z,19.73
2019-04-29T13:12:19.088Z,19.84
2019-04-29T13:14:40.155Z,20.14
2019-04-29T13:17:14.700Z,20.25
2019-04-29T13:19:50.286Z,20.26
2019-04-29T13:22:17.125Z,19.98
2019-04-29T13:24:45.825Z,19.67
2019-04-29T13:27:16.235Z,19.50
2019-04-29T13:29:45.236Z,19.38
2019-04-29T13:32:13.846Z,19.16
2019-04-29T13:34:43.993Z,19.00
2019-04-29T13:37:18.820Z,18.92
2019-04-29T13:39:43.034Z,18.84
2019-04-29T13:42:15.557Z,18.90
2019-04-29T13:44:46.013Z,18.96
2019-04-29T13:47:16.661Z,19.13
2019-04-29T13:49:49.414Z,19.30
2019-04-29T13:52:17.511Z,19.50
2019-04-29T13:54:46.083Z,19.51
2019-04-29T13:57:15.955Z,19.56
2019-04-29T13:59:49.343Z,19.60
2019-04-29T14:02:22.711Z,19.59
2019-04-29T14:05:00.161Z,19.72
2019-04-29T14:07:26.920Z,19.94
2019-04-29T14:09:55.426Z,20.01
2019-04-29T14:12:47.889Z,20.08
2019-04-29T14:14:58.486Z,19.88
2019-04-29T14:17:26.872Z,19.68
2019-04-29T14:19:57.031Z,19.51
2019-04-29T14:22:25.521Z,19.39
2019-04-29T14:24:54.088Z,19.25
2019-04-29T14:27:25.233Z,19.13
2019-04-29T14:29:53.012Z,19.02
2019-04-29T14:32:33.201Z,18.91
2019-04-29T14:35:07.032Z,18.82
2019-04-29T14:37:33.165Z,18.77
2019-04-29T14:40:02.798Z,18.58
2019-04-29T14:42:36.463Z,18.42
2019-04-29T14:45:07.171Z,18.26
2019-04-29T14:47:37.410Z,18.16
2019-04-29T14:50:15.730Z,18.11
2019-04-29T14:52:49.249Z,18.09
2019-04-29T14:55:15.235Z,18.06
2019-04-29T14:57:43.839Z,17.98
2019-04-29T15:00:20.169Z,17.85
2019-04-29T15:02:48.883Z,17.72
2019-04-29T15:05:17.545Z,17.53
2019-04-29T15:07:46.258Z,17.29
2019-04-29T15:10:14.999Z,17.25
2019-04-29T15:13:06.725Z,17.15
2019-04-29T15:15:34.186Z,17.11
2019-04-29T15:18:16.475Z,17.03
2019-04-29T15:20:56.529Z,16.94
2019-04-29T15:23:28.844Z,16.82
2019-04-29T15:25:55.447Z,16.72
2019-04-29T15:28:23.950Z,16.55
2019-04-29T15:30:53.463Z,16.37
2019-04-29T15:33:22.161Z,16.20
2019-04-29T15:35:50.744Z,16.07
2019-04-29T15:38:19.351Z,15.94
2019-04-29T15:40:47.916Z,15.82
2019-04-29T15:43:17.759Z,15.76
2019-04-29T15:45:46.860Z,15.69
2019-04-29T15:48:15.427Z,15.69
2019-04-29T15:50:44.005Z,15.66
2019-04-29T15:53:12.509Z,15.58
2019-04-29T15:55:41.455Z,15.53
2019-04-29T15:58:10.236Z,15.51
2019-04-29T16:00:40.631Z,15.49
2019-04-29T16:03:12.730Z,15.34
2019-04-29T16:06:18.922Z,15.25
2019-04-29T16:08:40.092Z,15.15
2019-04-29T16:11:29.443Z,15.11
2019-04-29T16:14:09.122Z,15.06
2019-04-29T16:16:27.584Z,14.97
2019-04-29T16:19:07.127Z,14.88
2019-04-29T16:21:26.452Z,14.83
2019-04-29T16:23:57.758Z,14.76
2019-04-29T16:26:30.210Z,14.69
2019-04-29T16:28:55.913Z,14.60
2019-04-29T16:31:24.484Z,14.55
2019-04-29T16:33:54.733Z,14.48
2019-04-29T16:36:23.412Z,14.42
2019-04-29T16:38:53.540Z,14.37
2019-04-29T16:41:36.100Z,14.31
2019-04-29T16:44:06.771Z,14.21
2019-04-29T16:46:37.796Z,14.13
2019-04-29T16:49:06.015Z,14.07
2019-04-29T16:51:34.587Z,13.98
2019-04-29T16:54:03.094Z,13.85
2019-04-29T16:56:31.671Z,13.74
2019-04-29T16:59:08.847Z,13.67
2019-04-29T17:01:30.804Z,13.61
2019-04-29T17:04:05.154Z,13.60
2019-04-29T17:06:30.105Z,13.58
2019-04-29T17:09:05.014Z,13.56
2019-04-29T17:11:32.299Z,13.54
2019-04-29T17:14:03.517Z,13.53
2019-04-29T17:16:31.257Z,13.52
2019-04-29T17:18:59.909Z,13.48
2019-04-29T17:21:28.524Z,13.47
2019-04-29T17:23:57.109Z,13.46
2019-04-29T17:26:27.573Z,13.47
2019-04-29T17:29:11.843Z,13.49
2019-04-29T17:31:36.055Z,13.47
2019-04-29T17:34:43.786Z,13.49
2019-04-29T17:36:48.834Z,13.51
2019-04-29T17:39:19.064Z,13.47
2019-04-29T17:41:47.678Z,13.46
2019-04-29T17:44:29.874Z,13.43
2019-04-29T17:47:00.482Z,13.39
2019-04-29T17:49:30.949Z,13.35
2019-04-29T17:52:02.920Z,13.31
2019-04-29T17:54:34.935Z,13.26
2019-04-29T17:57:25.546Z,13.21
2019-04-29T17:59:40.774Z,13.20
2019-04-29T18:02:22.104Z,13.17
2019-04-29T18:04:56.008Z,13.17
2019-04-29T18:07:30.512Z,13.14
2019-04-29T18:10:01.162Z,13.11
2019-04-29T18:12:33.659Z,13.10
2019-04-29T18:15:00.295Z,13.07
2019-04-29T18:17:31.287Z,13.02
2019-04-29T18:20:01.712Z,12.99
2019-04-29T18:22:51.140Z,13.00
2019-04-29T18:25:30.767Z,12.98
2019-04-29T18:28:00.047Z,12.94
2019-04-29T18:30:36.000Z,12.90
2019-04-29T18:33:00.000Z,12.85
2019-04-29T18:35:35.818Z,12.81
2019-04-29T18:38:11.865Z,12.76
2019-04-29T18:40:42.189Z,12.69
2019-04-29T18:43:10.870Z,12.66
2019-04-29T18:45:52.997Z,12.63
2019-04-29T18:48:16.944Z,12.61
2019-04-29T18:50:45.363Z,12.59
2019-04-29T18:53:15.572Z,12.57
2019-04-29T19:00:21.881Z,12.51
2019-04-29T19:02:57.070Z,12.41
2019-04-29T19:05:32.355Z,12.30
2019-04-29T19:08:11.378Z,12.27
2019-04-29T19:10:34.367Z,12.24
2019-04-29T19:13:05.375Z,12.24
2019-04-29T19:15:35.417Z,12.22
2019-04-29T19:18:07.625Z,12.18
2019-04-29T19:20:47.837Z,12.16
2019-04-29T19:23:16.087Z,12.14
2019-04-29T19:25:49.879Z,12.13
2019-04-29T19:28:29.960Z,12.08
2019-04-29T19:30:56.164Z,12.06
2019-04-29T19:33:25.218Z,12.03
2019-04-29T19:35:55.875Z,11.97
2019-04-29T19:38:26.722Z,11.92
2019-04-29T19:41:51.679Z,11.88
2019-04-29T19:44:26.448Z,11.84
2019-04-29T19:46:56.928Z,11.80
2019-04-29T19:49:26.431Z,11.74
2019-04-29T19:51:56.712Z,11.69
2019-04-29T19:54:28.575Z,11.64
2019-04-29T19:57:03.450Z,11.58
2019-04-29T19:59:30.052Z,11.54
2019-04-29T20:02:05.830Z,11.55
2019-04-29T20:04:39.270Z,11.55
2019-04-29T20:07:10.409Z,11.56
2019-04-29T20:09:40.411Z,11.54
2019-04-29T20:12:13.035Z,11.51
2019-04-29T20:14:41.850Z,11.50
2019-04-29T20:17:20.193Z,11.48
2019-04-29T20:19:56.692Z,11.49
2019-04-29T20:22:23.359Z,11.46
2019-04-29T20:24:52.628Z,11.47
2019-04-29T20:27:26.170Z,11.46
2019-04-29T20:29:52.974Z,11.44
2019-04-29T20:32:27.001Z,11.45
2019-04-29T20:34:57.440Z,11.43
2019-04-29T20:37:26.158Z,11.43
2019-04-29T20:39:57.221Z,11.43
2019-04-29T20:42:26.093Z,11.44
2019-04-29T20:44:55.306Z,11.40
2019-04-29T20:47:37.280Z,11.39
2019-04-29T20:49:54.771Z,11.37
2019-04-29T20:52:31.336Z,11.37
2019-04-29T20:55:02.462Z,11.37
2019-04-29T20:57:30.534Z,11.36
2019-04-29T20:59:59.498Z,11.34
2019-04-29T21:02:33.729Z,11.36
2019-04-29T21:04:58.959Z,11.35
2019-04-29T21:07:28.049Z,11.33
2019-04-29T21:10:00.022Z,11.31
2019-04-29T21:12:38.232Z,11.31
2019-04-29T21:15:14.952Z,11.29
2019-04-29T21:17:41.689Z,11.29
2019-04-29T21:20:10.288Z,11.26
2019-04-29T21:22:38.895Z,11.26
2019-04-29T21:25:08.557Z,11.24
2019-04-29T21:27:37.266Z,11.22
2019-04-29T21:30:06.962Z,11.24
2019-04-29T21:32:38.993Z,11.22
2019-04-29T21:35:16.914Z,11.22
2019-04-29T21:37:44.870Z,11.20
2019-04-29T21:40:18.550Z,11.19
2019-04-29T21:42:47.368Z,11.17
2019-04-29T21:45:17.496Z,11.15
2019-04-29T21:47:52.969Z,11.14
2019-04-29T21:50:16.646Z,11.11
2019-04-29T21:52:46.876Z,11.09
2019-04-29T21:55:16.087Z,11.07
2019-04-29T21:57:44.903Z,11.07
2019-04-29T22:00:19.818Z,11.06
2019-04-29T22:02:46.607Z,11.02
2019-04-29T22:05:18.322Z,10.97
2019-04-29T22:07:47.490Z,10.93
2019-04-29T22:10:19.926Z,10.91
2019-04-29T22:12:50.819Z,10.88
2019-04-29T22:15:29.261Z,10.85
2019-04-29T22:17:56.180Z,10.82
2019-04-29T22:20:18.188Z,10.82
2019-04-29T22:22:47.779Z,10.81
2019-04-29T22:25:16.836Z,10.82
2019-04-29T22:27:45.419Z,10.84
2019-04-29T22:30:18.528Z,10.83
2019-04-29T22:32:47.138Z,10.84
2019-04-29T22:35:16.512Z,10.86
2019-04-29T22:37:45.531Z,10.89
2019-04-29T22:40:15.440Z,10.91
2019-04-29T22:42:48.700Z,10.91
2019-04-29T22:45:16.975Z,10.91
2019-04-29T22:47:45.555Z,10.92
2019-04-29T22:50:14.340Z,10.92
2019-04-29T22:52:42.946Z,10.92
2019-04-29T22:55:11.624Z,10.91
2019-04-29T22:57:40.202Z,10.92
2019-04-29T23:00:11.077Z,10.90
2019-04-29T23:02:39.761Z,10.90
2019-04-29T23:05:08.356Z,10.90
2019-04-29T23:07:37.785Z,10.89
2019-04-29T23:10:07.626Z,10.87
2019-04-29T23:12:36.204Z,10.88
2019-04-29T23:15:06.684Z,10.87
2019-04-29T23:17:35.530Z,10.88
2019-04-29T23:20:27.464Z,10.87
2019-04-29T23:22:56.912Z,10.85
2019-04-29T23:25:30.890Z,10.85
2019-04-29T23:27:59.460Z,10.85
2019-04-29T23:30:28.956Z,10.83
2019-04-29T23:32:57.637Z,10.82
2019-04-29T23:35:26.284Z,10.81
2019-04-29T23:37:57.427Z,10.80
2019-04-29T23:40:25.210Z,10.78
2019-04-29T23:42:55.406Z,10.78
2019-04-29T23:45:25.243Z,10.79
2019-04-29T23:47:55.517Z,10.79
2019-04-29T23:50:27.875Z,10.79
2019-04-29T23:52:55.667Z,10.78
2019-04-29T23:55:25.659Z,10.77
2019-04-29T23:58:03.790Z,10.78
